Main page
METAR-TAF:

METAR-TAF

Airports :

Gorna Oryahovitsa Airport

Veliko Tarnovo, Bulgaria

latitude: 43-09N, longitude: 025-36E, elevation: 87 m

Current weather observation

The report was made 26 minutes ago, at 03:00 UTC
Wind 3 kt from the East
Temperature 9°C
Humidity 100%
Pressure 1021 hPa
Visibility 10 km or more

METAR: LBGO 260300Z AUTO 10003KT 9999 NCD 09/09 Q1021 NOSIG

Time: 06:26 (03:26 UTC)

Forecast

The report was made 4 hours and 26 minutes ago, at 23:00 UTC
Forecast valid from 26 at 00 UTC to 26 at 24 UTC
Wind 4 kt from variable directions
Visibility 10 km or more
no clouds below 1500 m and no cumulonimbus
Probability 40% :
Temporary
from 26 at 02 UTC to 26 at 05 UTC
Visibility: 5000 m
mist

TAF: LBGO 252300Z 2600/2624 VRB04KT CAVOK PROB40 TEMPO 2602/2605 5000 BR

Weather observations and forecasts of more than 4000 airports (METAR and TAF reports).

The available stations are represented by yellow and red dots on the map.

Hover mouse over dot to see the name of the station.

Then click to see weather observations and forecasts.

To change the map : click on the green buttons with a black cross to zoom in, on the green button with a dash to zoom out, or on the green arrows for adjacent maps.


METAR-TAF: